createdAt,value
2018-06-03T00:00:39.205Z,17.13
2018-06-03T00:03:09.892Z,17.04
2018-06-03T00:05:39.236Z,16.83
2018-06-03T00:08:08.799Z,16.83
2018-06-03T00:10:38.537Z,16.77
2018-06-03T00:13:08.824Z,16.79
2018-06-03T00:15:38.434Z,16.76
2018-06-03T00:18:08.688Z,16.75
2018-06-03T00:20:55.150Z,16.58
2018-06-03T00:23:24.656Z,16.51
2018-06-03T00:25:54.697Z,16.49
2018-06-03T00:28:24.461Z,16.43
2018-06-03T00:30:54.185Z,16.31
2018-06-03T00:33:23.977Z,16.40
2018-06-03T00:36:11.706Z,16.42
2018-06-03T00:38:41.223Z,16.42
2018-06-03T00:41:10.748Z,16.46
2018-06-03T00:43:40.314Z,16.47
2018-06-03T00:46:10.449Z,16.44
2018-06-03T00:48:39.769Z,16.35
2018-06-03T00:51:09.137Z,16.23
2018-06-03T00:53:38.493Z,16.03
2018-06-03T00:56:07.848Z,16.01
2018-06-03T00:58:37.192Z,15.99
2018-06-03T01:01:06.562Z,15.93
2018-06-03T01:03:35.976Z,15.88
2018-06-03T01:06:05.339Z,15.81
2018-06-03T01:08:34.714Z,15.81
2018-06-03T01:11:04.085Z,15.85
2018-06-03T01:13:33.473Z,15.86
2018-06-03T01:16:02.866Z,15.96
2018-06-03T01:18:32.209Z,16.06
2018-06-03T01:21:01.596Z,16.05
2018-06-03T01:23:31.006Z,16.06
2018-06-03T01:26:00.350Z,16.03
2018-06-03T01:28:29.685Z,16.01
2018-06-03T01:30:59.046Z,15.87
2018-06-03T01:33:28.386Z,15.97
2018-06-03T01:35:57.785Z,16.05
2018-06-03T01:38:32.757Z,15.95
2018-06-03T01:41:02.117Z,16.03
2018-06-03T01:43:31.462Z,15.98
2018-06-03T01:46:00.829Z,15.99
2018-06-03T01:48:30.169Z,16.04
2018-06-03T01:50:59.494Z,16.00
2018-06-03T01:53:28.853Z,16.09
2018-06-03T01:55:58.205Z,16.05
2018-06-03T01:58:27.568Z,16.12
2018-06-03T02:00:56.931Z,16.11
2018-06-03T02:03:26.263Z,16.04
2018-06-03T02:05:55.602Z,16.02
2018-06-03T02:08:25.044Z,16.09
2018-06-03T02:10:54.380Z,16.03
2018-06-03T02:13:23.725Z,15.98
2018-06-03T02:15:53.063Z,16.00
2018-06-03T02:18:22.389Z,15.86
2018-06-03T02:20:51.745Z,15.95
2018-06-03T02:23:24.576Z,15.91
2018-06-03T02:25:54.372Z,15.90
2018-06-03T02:28:24.085Z,15.92
2018-06-03T02:30:53.798Z,15.86
2018-06-03T02:33:23.155Z,15.75
2018-06-03T02:35:52.526Z,15.61
2018-06-03T02:38:22.069Z,15.65
2018-06-03T02:40:51.414Z,15.58
2018-06-03T02:43:20.918Z,15.52
2018-06-03T02:45:50.280Z,15.53
2018-06-03T02:48:20.253Z,15.45
2018-06-03T02:50:50.074Z,15.48
2018-06-03T02:53:19.475Z,15.47
2018-06-03T02:55:48.946Z,15.48
2018-06-03T02:58:18.302Z,15.48
2018-06-03T03:00:47.653Z,15.46
2018-06-03T03:03:17.001Z,15.51
2018-06-03T03:05:46.375Z,15.51
2018-06-03T03:08:15.733Z,15.58
2018-06-03T03:10:45.061Z,15.60
2018-06-03T03:13:14.396Z,15.73
2018-06-03T03:15:43.760Z,15.66
2018-06-03T03:18:13.138Z,15.65
2018-06-03T03:20:42.470Z,15.70
2018-06-03T03:23:11.844Z,15.68
2018-06-03T03:25:41.206Z,15.66
2018-06-03T03:28:10.550Z,15.54
2018-06-03T03:30:39.918Z,15.39
2018-06-03T03:33:09.251Z,15.39
2018-06-03T03:35:38.632Z,15.46
2018-06-03T03:38:07.721Z,15.53
2018-06-03T03:40:37.140Z,15.50
2018-06-03T03:43:06.496Z,15.49
2018-06-03T03:45:35.893Z,15.48
2018-06-03T03:48:05.240Z,15.51
2018-06-03T03:50:34.605Z,15.40
2018-06-03T03:53:03.950Z,15.27
2018-06-03T03:55:33.296Z,15.38
2018-06-03T03:58:02.638Z,15.40
2018-06-03T04:00:31.995Z,15.33
2018-06-03T04:03:01.330Z,15.28
2018-06-03T04:05:30.697Z,15.36
2018-06-03T04:08:00.080Z,15.32
2018-06-03T04:10:29.600Z,15.29
2018-06-03T04:12:58.950Z,15.25
2018-06-03T04:15:28.500Z,15.18
2018-06-03T04:17:57.892Z,15.23
2018-06-03T04:20:27.653Z,15.32
2018-06-03T04:22:56.968Z,15.20
2018-06-03T04:25:26.351Z,15.20
2018-06-03T04:27:55.713Z,15.23
2018-06-03T04:30:25.036Z,15.38
2018-06-03T04:32:54.360Z,15.33
2018-06-03T04:35:23.714Z,15.32
2018-06-03T04:37:53.067Z,15.42
2018-06-03T04:40:22.428Z,15.53
2018-06-03T04:42:55.430Z,15.60
2018-06-03T04:45:24.762Z,15.77
2018-06-03T04:47:54.103Z,15.77
2018-06-03T04:50:23.457Z,15.93
2018-06-03T04:52:52.805Z,16.07
2018-06-03T04:55:22.148Z,16.11
2018-06-03T04:57:51.497Z,16.25
2018-06-03T05:00:20.835Z,16.15
2018-06-03T05:02:50.185Z,16.16
2018-06-03T05:05:19.542Z,16.15
2018-06-03T05:07:48.893Z,16.09
2018-06-03T05:10:18.244Z,16.24
2018-06-03T05:12:47.566Z,16.31
2018-06-03T05:15:16.916Z,16.31
2018-06-03T05:17:46.236Z,16.35
2018-06-03T05:20:15.733Z,16.25
2018-06-03T05:22:45.144Z,16.26
2018-06-03T05:25:14.469Z,16.38
2018-06-03T05:27:43.821Z,16.13
2018-06-03T05:30:13.153Z,16.04
2018-06-03T05:32:42.513Z,16.18
2018-06-03T05:35:11.865Z,16.30
2018-06-03T05:37:41.180Z,16.40
2018-06-03T05:40:10.549Z,16.53
2018-06-03T05:42:39.890Z,16.51
2018-06-03T05:45:09.257Z,16.67
2018-06-03T05:47:38.613Z,16.71
2018-06-03T05:50:07.956Z,16.77
2018-06-03T05:52:38.374Z,16.82
2018-06-03T05:55:07.749Z,16.93
2018-06-03T05:57:37.736Z,17.06
2018-06-03T06:00:07.107Z,17.23
2018-06-03T06:02:36.476Z,17.28
2018-06-03T06:05:05.869Z,17.50
2018-06-03T06:07:35.376Z,17.58
2018-06-03T06:10:04.908Z,17.75
2018-06-03T06:12:34.278Z,17.95
2018-06-03T06:15:03.669Z,18.12
2018-06-03T06:17:33.069Z,18.28
2018-06-03T06:20:02.431Z,18.49
2018-06-03T06:22:31.779Z,18.63
2018-06-03T06:25:01.137Z,18.73
2018-06-03T06:27:30.494Z,18.87
2018-06-03T06:29:59.814Z,19.00
2018-06-03T06:32:29.180Z,19.18
2018-06-03T06:34:58.557Z,19.36
2018-06-03T06:37:27.897Z,19.37
2018-06-03T06:39:57.237Z,19.46
2018-06-03T06:42:26.617Z,19.65
2018-06-03T06:44:55.932Z,19.68
2018-06-03T06:47:25.297Z,19.73
2018-06-03T06:49:54.705Z,19.83
2018-06-03T06:52:23.834Z,19.77
2018-06-03T06:54:53.192Z,19.86
2018-06-03T06:57:22.639Z,19.67
2018-06-03T06:59:51.929Z,19.97
2018-06-03T07:02:21.297Z,20.08
2018-06-03T07:04:50.633Z,20.25
2018-06-03T07:07:20.031Z,20.44
2018-06-03T07:09:49.377Z,20.52
2018-06-03T07:12:18.725Z,20.70
2018-06-03T07:14:48.052Z,20.94
2018-06-03T07:17:17.449Z,21.06
2018-06-03T07:19:46.902Z,21.20
2018-06-03T07:22:16.328Z,21.45
2018-06-03T07:24:45.721Z,21.77
2018-06-03T07:27:15.093Z,21.95
2018-06-03T07:29:44.582Z,22.16
2018-06-03T07:32:13.953Z,22.45
2018-06-03T07:34:43.328Z,22.40
2018-06-03T07:37:12.752Z,22.60
2018-06-03T07:39:42.225Z,23.01
2018-06-03T07:42:11.655Z,23.42
2018-06-03T07:44:41.090Z,23.67
2018-06-03T07:47:10.449Z,24.11
2018-06-03T07:49:39.836Z,24.42
2018-06-03T07:52:09.188Z,24.34
2018-06-03T07:54:38.545Z,24.46
2018-06-03T07:57:07.918Z,24.51
2018-06-03T07:59:37.262Z,24.89
2018-06-03T08:02:06.889Z,24.47
2018-06-03T08:04:36.293Z,24.55
2018-06-03T08:07:05.674Z,24.60
2018-06-03T08:09:35.037Z,24.70
2018-06-03T08:12:04.405Z,24.69
2018-06-03T08:14:33.745Z,24.81
2018-06-03T08:17:03.090Z,24.96
2018-06-03T08:19:32.451Z,25.17
2018-06-03T08:22:01.851Z,25.12
2018-06-03T08:24:31.210Z,24.57
2018-06-03T08:27:00.601Z,24.39
2018-06-03T08:29:29.946Z,24.20
2018-06-03T08:31:59.281Z,24.63
2018-06-03T08:34:28.768Z,24.81
2018-06-03T08:36:58.110Z,25.16
2018-06-03T08:39:27.485Z,25.05
2018-06-03T08:41:56.863Z,24.96
2018-06-03T08:44:26.207Z,25.13
2018-06-03T08:46:55.541Z,25.18
2018-06-03T08:49:24.897Z,25.37
2018-06-03T08:51:54.264Z,25.04
2018-06-03T08:54:23.623Z,24.58
2018-06-03T08:56:52.977Z,24.20
2018-06-03T08:59:22.333Z,24.05
2018-06-03T09:01:51.773Z,23.47
2018-06-03T09:04:21.123Z,23.71
2018-06-03T09:06:50.551Z,23.95
2018-06-03T09:09:19.880Z,23.79
2018-06-03T09:11:49.267Z,23.85
2018-06-03T09:14:18.609Z,23.83
2018-06-03T09:16:48.103Z,23.50
2018-06-03T09:19:17.522Z,23.97
2018-06-03T09:21:46.920Z,24.09
2018-06-03T09:24:16.251Z,23.88
2018-06-03T09:26:45.622Z,24.71
2018-06-03T09:29:15.090Z,25.01
2018-06-03T09:31:44.508Z,25.22
2018-06-03T09:34:14.032Z,24.56
2018-06-03T09:36:43.568Z,24.53
2018-06-03T09:39:13.065Z,24.62
2018-06-03T09:41:42.626Z,24.91
2018-06-03T09:44:12.146Z,25.25
2018-06-03T09:46:41.633Z,25.68
2018-06-03T09:49:11.157Z,25.70
2018-06-03T09:51:40.664Z,25.88
2018-06-03T10:02:55.098Z,25.63
2018-06-03T10:07:51.445Z,26.48
2018-06-03T10:10:20.811Z,26.55
2018-06-03T10:12:50.155Z,26.73
2018-06-03T10:15:19.494Z,27.04
2018-06-03T10:17:48.847Z,26.87
2018-06-03T10:20:18.253Z,26.78
2018-06-03T10:22:47.608Z,26.86
2018-06-03T10:25:17.008Z,26.64
2018-06-03T10:27:46.415Z,26.61
2018-06-03T10:30:15.889Z,26.86
2018-06-03T10:32:45.288Z,26.58
2018-06-03T10:35:14.682Z,26.56
2018-06-03T10:37:44.209Z,26.71
2018-06-03T10:40:13.608Z,26.97
2018-06-03T10:42:43.252Z,26.68
2018-06-03T10:45:12.590Z,26.14
2018-06-03T10:47:41.912Z,26.48
2018-06-03T10:50:11.317Z,26.43
2018-06-03T10:52:40.673Z,25.98
2018-06-03T10:55:10.016Z,25.73
2018-06-03T10:57:39.425Z,26.09
2018-06-03T11:00:08.822Z,26.29
2018-06-03T11:02:38.248Z,26.62
2018-06-03T11:05:07.962Z,26.81
2018-06-03T11:07:37.331Z,26.79
2018-06-03T11:10:06.774Z,26.80
2018-06-03T11:12:36.117Z,27.44
2018-06-03T11:15:05.660Z,27.78
2018-06-03T11:17:35.017Z,28.23
2018-06-03T11:20:04.489Z,28.30
2018-06-03T11:22:33.845Z,28.14
2018-06-03T11:25:03.249Z,28.36
2018-06-03T11:27:32.637Z,28.38
2018-06-03T11:30:02.005Z,27.45
2018-06-03T11:32:31.609Z,26.81
2018-06-03T11:35:00.968Z,26.72
2018-06-03T11:37:30.460Z,27.17
2018-06-03T11:39:59.891Z,27.57
2018-06-03T11:42:29.220Z,28.08
2018-06-03T11:44:58.573Z,28.11
2018-06-03T11:47:27.931Z,28.26
2018-06-03T11:49:57.334Z,28.27
2018-06-03T11:52:26.815Z,28.38
2018-06-03T11:54:56.131Z,27.92
2018-06-03T11:57:58.665Z,27.68
2018-06-03T12:00:27.976Z,26.98
2018-06-03T12:02:57.332Z,27.09
2018-06-03T12:05:26.785Z,26.90
2018-06-03T12:07:56.204Z,27.43
2018-06-03T12:10:25.596Z,27.02
2018-06-03T12:12:54.984Z,27.01
2018-06-03T12:15:24.379Z,27.21
2018-06-03T12:17:53.696Z,26.85
2018-06-03T12:20:23.101Z,26.88
2018-06-03T12:22:52.449Z,27.13
2018-06-03T12:25:21.818Z,27.41
2018-06-03T12:27:51.204Z,27.58
2018-06-03T12:30:20.577Z,28.00
2018-06-03T12:32:49.943Z,28.39
2018-06-03T12:35:19.316Z,28.69
2018-06-03T12:37:48.663Z,29.01
2018-06-03T12:40:18.021Z,29.36
2018-06-03T12:42:47.353Z,29.60
2018-06-03T12:45:20.138Z,29.43
2018-06-03T12:47:49.504Z,29.00
2018-06-03T12:50:18.841Z,28.41
2018-06-03T12:52:48.227Z,28.70
2018-06-03T12:55:17.581Z,28.77
2018-06-03T12:57:46.961Z,28.79
2018-06-03T13:00:16.375Z,28.94
2018-06-03T13:02:45.700Z,28.65
2018-06-03T13:05:15.057Z,28.16
2018-06-03T13:07:44.412Z,28.14
2018-06-03T13:10:13.877Z,28.14
2018-06-03T13:12:43.288Z,28.74
2018-06-03T13:15:12.674Z,29.33
2018-06-03T13:17:42.045Z,30.11
2018-06-03T13:20:11.495Z,30.47
2018-06-03T13:22:40.913Z,30.34
2018-06-03T13:25:10.272Z,30.06
2018-06-03T13:27:39.599Z,29.70
2018-06-03T13:30:08.979Z,29.25
2018-06-03T13:32:38.314Z,29.36
2018-06-03T13:35:07.756Z,28.75
2018-06-03T13:37:37.182Z,28.98
2018-06-03T13:40:06.504Z,28.39
2018-06-03T13:42:35.864Z,28.49
2018-06-03T13:45:05.397Z,28.89
2018-06-03T13:47:34.808Z,29.11
2018-06-03T13:50:04.769Z,29.20
2018-06-03T13:52:34.135Z,29.43
2018-06-03T13:55:03.479Z,30.15
2018-06-03T13:57:32.608Z,32.04
2018-06-03T14:00:01.960Z,33.09
2018-06-03T14:02:31.326Z,34.49
2018-06-03T14:05:00.673Z,35.42
2018-06-03T14:07:30.015Z,33.75
2018-06-03T14:09:59.375Z,33.07
2018-06-03T14:12:28.777Z,33.31
2018-06-03T14:14:58.137Z,33.59
2018-06-03T14:17:27.480Z,32.34
2018-06-03T14:19:56.818Z,32.91
2018-06-03T14:22:26.248Z,32.77
2018-06-03T14:24:55.576Z,33.61
2018-06-03T14:27:24.977Z,33.51
2018-06-03T14:29:54.870Z,35.17
2018-06-03T14:32:24.298Z,34.58
2018-06-03T14:42:57.291Z,34.25
2018-06-03T14:45:26.649Z,36.07
2018-06-03T14:47:55.992Z,36.42
2018-06-03T14:50:25.415Z,36.65
2018-06-03T14:52:54.820Z,36.61
2018-06-03T14:55:24.176Z,37.12
2018-06-03T14:57:53.544Z,36.86
2018-06-03T15:00:22.865Z,36.06
2018-06-03T15:02:52.198Z,36.11
2018-06-03T15:05:21.572Z,36.82
2018-06-03T15:07:51.016Z,37.21
2018-06-03T15:10:20.416Z,37.60
2018-06-03T15:12:49.760Z,37.69
2018-06-03T15:15:19.132Z,37.29
2018-06-03T15:17:48.507Z,37.49
2018-06-03T15:20:17.890Z,37.55
2018-06-03T15:22:47.298Z,38.71
2018-06-03T15:25:16.700Z,37.73
2018-06-03T15:27:46.049Z,36.83
2018-06-03T15:30:15.736Z,35.84
2018-06-03T15:32:45.067Z,35.98
2018-06-03T15:35:14.416Z,35.11
2018-06-03T15:37:43.774Z,35.08
2018-06-03T15:40:13.172Z,35.50
2018-06-03T15:42:43.603Z,36.35
2018-06-03T15:45:12.933Z,37.42
2018-06-03T15:47:42.541Z,37.84
2018-06-03T15:50:11.896Z,37.47
2018-06-03T15:52:41.292Z,36.63
2018-06-03T15:55:10.693Z,35.67
2018-06-03T15:57:40.148Z,36.10
2018-06-03T16:00:09.549Z,35.46
2018-06-03T16:02:38.994Z,35.77
2018-06-03T16:05:09.150Z,36.39
2018-06-03T16:07:38.525Z,36.72
2018-06-03T16:10:07.873Z,37.59
2018-06-03T16:12:37.333Z,37.50
2018-06-03T16:15:06.688Z,38.28
2018-06-03T16:17:36.068Z,37.88
2018-06-03T16:20:05.438Z,38.72
2018-06-03T16:22:34.852Z,38.11
2018-06-03T16:25:04.354Z,36.82
2018-06-03T16:27:33.756Z,37.59
2018-06-03T16:30:03.063Z,37.68
2018-06-03T16:32:32.435Z,37.74
2018-06-03T16:35:01.777Z,37.85
2018-06-03T16:37:31.145Z,38.45
2018-06-03T16:40:00.523Z,38.61
2018-06-03T16:42:29.886Z,38.31
2018-06-03T16:44:59.229Z,38.83
2018-06-03T16:47:28.676Z,39.19
2018-06-03T16:49:58.024Z,39.21
2018-06-03T16:52:27.425Z,38.90
2018-06-03T16:54:56.789Z,39.12
2018-06-03T16:57:26.162Z,39.40
2018-06-03T16:59:55.601Z,38.81
2018-06-03T17:02:24.933Z,38.49
2018-06-03T17:04:54.304Z,37.94
2018-06-03T17:07:27.265Z,36.24
2018-06-03T17:09:56.619Z,35.12
2018-06-03T17:12:26.011Z,35.85
2018-06-03T17:14:55.390Z,35.96
2018-06-03T17:17:24.801Z,35.39
2018-06-03T17:19:54.153Z,36.35
2018-06-03T17:22:23.545Z,36.18
2018-06-03T17:24:52.929Z,35.10
2018-06-03T17:27:22.281Z,34.80
2018-06-03T17:29:51.705Z,34.33
2018-06-03T17:32:21.089Z,34.77
2018-06-03T17:34:50.465Z,35.23
2018-06-03T17:37:19.846Z,35.52
2018-06-03T17:39:49.287Z,34.63
2018-06-03T17:42:18.688Z,35.17
2018-06-03T17:44:48.076Z,34.57
2018-06-03T17:47:17.490Z,34.51
2018-06-03T17:49:46.853Z,34.51
2018-06-03T17:52:16.372Z,33.70
2018-06-03T17:54:45.966Z,32.94
2018-06-03T17:57:15.360Z,32.06
2018-06-03T17:59:44.779Z,30.54
2018-06-03T18:02:14.143Z,29.97
2018-06-03T18:04:43.634Z,29.03
2018-06-03T18:07:13.094Z,27.75
2018-06-03T18:09:42.265Z,27.10
2018-06-03T18:12:11.756Z,26.93
2018-06-03T18:14:41.231Z,26.01
2018-06-03T18:17:10.779Z,25.93
2018-06-03T18:19:40.201Z,25.61
2018-06-03T18:22:09.650Z,25.51
2018-06-03T18:24:39.113Z,25.31
2018-06-03T18:27:08.624Z,25.38
2018-06-03T18:29:38.599Z,25.14
2018-06-03T18:32:08.056Z,25.09
2018-06-03T18:34:37.721Z,25.05
2018-06-03T18:37:07.221Z,24.99
2018-06-03T18:39:36.992Z,24.86
2018-06-03T18:42:07.444Z,24.71
2018-06-03T18:44:37.866Z,24.49
2018-06-03T18:47:10.111Z,24.48
2018-06-03T18:49:40.596Z,24.35
2018-06-03T18:52:13.038Z,24.28
2018-06-03T18:54:44.467Z,24.12
2018-06-03T18:57:15.869Z,23.85
2018-06-03T18:59:47.094Z,23.63
2018-06-03T19:02:19.498Z,23.43
2018-06-03T19:04:51.543Z,23.26
2018-06-03T19:07:23.787Z,23.10
2018-06-03T19:09:56.358Z,23.00
2018-06-03T19:12:28.667Z,22.92
2018-06-03T19:15:00.979Z,22.77
2018-06-03T19:17:33.271Z,22.70
2018-06-03T19:20:05.530Z,22.43
2018-06-03T19:22:37.764Z,22.04
2018-06-03T19:25:10.818Z,21.88
2018-06-03T19:27:44.036Z,21.74
2018-06-03T19:30:16.801Z,21.57
2018-06-03T19:32:48.977Z,21.45
2018-06-03T19:35:21.453Z,21.43
2018-06-03T19:37:53.618Z,21.25
2018-06-03T19:40:25.843Z,21.12
2018-06-03T19:42:57.971Z,20.91
2018-06-03T19:45:30.391Z,20.79
2018-06-03T19:48:02.589Z,20.74
2018-06-03T19:50:34.785Z,20.72
2018-06-03T19:53:07.535Z,20.67
2018-06-03T19:55:39.812Z,20.64
2018-06-03T19:58:12.210Z,20.58
2018-06-03T20:00:44.765Z,20.49
2018-06-03T20:03:16.955Z,20.42
2018-06-03T20:05:49.235Z,20.30
2018-06-03T20:08:21.582Z,20.28
2018-06-03T20:10:54.590Z,20.20
2018-06-03T20:13:27.280Z,20.16
2018-06-03T20:15:59.659Z,20.13
2018-06-03T20:18:32.008Z,20.03
2018-06-03T20:21:04.301Z,19.94
2018-06-03T20:23:36.945Z,19.92
2018-06-03T20:26:09.441Z,19.83
2018-06-03T20:28:41.725Z,19.78
2018-06-03T20:31:14.072Z,19.70
2018-06-03T20:33:46.596Z,19.67
2018-06-03T20:36:19.070Z,19.56
2018-06-03T20:38:51.510Z,19.46
2018-06-03T20:41:23.823Z,19.46
2018-06-03T20:43:56.110Z,19.47
2018-06-03T20:46:28.414Z,19.51
2018-06-03T20:49:00.616Z,19.51
2018-06-03T20:51:32.107Z,19.41
2018-06-03T20:54:04.896Z,19.29
2018-06-03T20:56:37.575Z,19.35
2018-06-03T20:59:10.134Z,19.33
2018-06-03T21:01:42.690Z,19.20
2018-06-03T21:04:14.892Z,19.16
2018-06-03T21:06:47.385Z,19.14
2018-06-03T21:09:19.403Z,19.11
2018-06-03T21:11:51.686Z,19.08
2018-06-03T21:14:23.667Z,19.02
2018-06-03T21:16:55.813Z,18.96
2018-06-03T21:19:27.701Z,18.87
2018-06-03T21:21:58.624Z,18.87
2018-06-03T21:24:28.317Z,18.75
2018-06-03T21:26:57.742Z,18.67
2018-06-03T21:29:27.132Z,18.68
2018-06-03T21:31:56.515Z,18.68
2018-06-03T21:34:25.966Z,18.66
2018-06-03T21:36:55.392Z,18.66
2018-06-03T21:39:24.788Z,18.59
2018-06-03T21:41:54.222Z,18.56
2018-06-03T21:44:23.607Z,18.43
2018-06-03T21:46:53.005Z,18.49
2018-06-03T21:49:22.408Z,18.50
2018-06-03T21:51:51.821Z,18.54
2018-06-03T21:54:21.157Z,18.43
2018-06-03T21:56:50.556Z,18.39
2018-06-03T21:59:19.893Z,18.26
2018-06-03T22:01:49.315Z,18.26
2018-06-03T22:04:18.703Z,18.18
2018-06-03T22:06:48.093Z,18.10
2018-06-03T22:09:17.465Z,17.96
2018-06-03T22:11:46.837Z,17.89
2018-06-03T22:14:16.203Z,17.76
2018-06-03T22:16:45.716Z,17.68
2018-06-03T22:19:15.243Z,17.51
2018-06-03T22:21:44.588Z,17.44
2018-06-03T22:24:14.076Z,17.41
2018-06-03T22:26:43.472Z,17.38
2018-06-03T22:29:12.834Z,17.25
2018-06-03T22:31:42.194Z,17.23
2018-06-03T22:34:11.848Z,17.21
2018-06-03T22:36:41.398Z,17.19
2018-06-03T22:39:11.118Z,17.11
2018-06-03T22:41:40.876Z,17.05
2018-06-03T22:44:10.272Z,17.08
2018-06-03T22:46:39.656Z,17.19
2018-06-03T22:49:09.063Z,17.21
2018-06-03T22:51:38.473Z,17.20
2018-06-03T22:54:07.928Z,17.18
2018-06-03T22:57:55.824Z,17.22
2018-06-03T23:00:33.422Z,17.23
2018-06-03T23:03:08.010Z,17.20
2018-06-03T23:05:37.347Z,17.05
2018-06-03T23:08:06.730Z,17.04
2018-06-03T23:10:36.119Z,17.01
2018-06-03T23:13:05.444Z,16.87
2018-06-03T23:15:34.820Z,16.85
2018-06-03T23:18:04.176Z,16.80
2018-06-03T23:20:33.559Z,16.89
2018-06-03T23:23:03.026Z,17.01
2018-06-03T23:25:32.389Z,16.97
2018-06-03T23:28:01.839Z,16.96
2018-06-03T23:30:31.212Z,16.98
2018-06-03T23:33:00.641Z,16.96
2018-06-03T23:35:30.081Z,16.89
2018-06-03T23:37:59.475Z,16.92
2018-06-03T23:40:28.829Z,16.92
2018-06-03T23:42:58.244Z,16.71
2018-06-03T23:45:27.618Z,16.99
2018-06-03T23:47:56.990Z,17.01
2018-06-03T23:50:26.357Z,16.93
2018-06-03T23:52:55.716Z,16.84
2018-06-03T23:55:25.088Z,16.71
2018-06-03T23:57:54.540Z,16.57
